Georgtown Station, New York
Current Conditions -  °F | °C
As of 8:53 AM on Sunday 25 Jan 2015 (Local Time) from KRME Reporting Station
Clear Clear  
Wind Chill: -16°   Ceiling: Unl
Heat Index: -8°   Visibility: 10mi
Dew Point: -13°   Wind: 15mph
Humidity: 68%   Direction: 280°W
Pressure: 29.78"   Gusts: NA
Location:  42.8314°N, 75.6471°W
Report Text: KRME 251353Z 28013KT 10SM CLR M08/M13 A2978 RMK AO2 SLP090 T10781128
Loading
Personal Weather Stations






























Interactive Weather Map New forecast layout! Learn more

10-Day Weather Forecast

Advertisements
Track Severe Weather on mobile